createdAt,value
2023-01-02T00:01:33.694Z,75.07
2023-01-02T00:04:01.830Z,75.53
2023-01-02T00:06:29.949Z,73.27
2023-01-02T00:08:58.023Z,75.27
2023-01-02T00:11:26.137Z,74.70
2023-01-02T00:13:55.765Z,72.80
2023-01-02T00:16:24.071Z,75.17
2023-01-02T00:18:52.408Z,73.77
2023-01-02T00:21:20.563Z,74.10
2023-01-02T00:23:48.642Z,75.50
2023-01-02T00:26:16.738Z,72.17
2023-01-02T00:28:44.877Z,77.17
2023-01-02T00:31:15.395Z,75.13
2023-01-02T00:33:44.228Z,76.00
2023-01-02T00:36:14.087Z,78.93
2023-01-02T00:38:42.818Z,77.97
2023-01-02T00:41:11.527Z,77.57
2023-01-02T00:43:40.157Z,81.43
2023-01-02T00:46:11.939Z,83.10
2023-01-02T00:48:41.762Z,75.50
2023-01-02T00:51:10.151Z,73.20
2023-01-02T00:53:38.853Z,76.40
2023-01-02T00:56:07.192Z,76.67
2023-01-02T00:58:35.810Z,79.50
2023-01-02T01:01:04.205Z,82.07
2023-01-02T01:03:32.633Z,83.97
2023-01-02T01:06:07.493Z,79.20
2023-01-02T01:08:36.685Z,83.67
2023-01-02T01:11:09.581Z,83.33
2023-01-02T01:13:38.272Z,85.97
2023-01-02T01:16:07.622Z,85.70
2023-01-02T01:18:36.412Z,89.70
2023-01-02T01:21:09.522Z,95.23
2023-01-02T01:23:37.829Z,93.23
2023-01-02T01:26:06.799Z,93.07
2023-01-02T01:28:34.964Z,96.17
2023-01-02T01:31:04.612Z,97.87
2023-01-02T01:33:33.316Z,96.63
2023-01-02T01:36:05.428Z,101.67
2023-01-02T01:38:35.329Z,98.93
2023-01-02T01:41:04.317Z,102.50
2023-01-02T01:43:41.104Z,100.67
2023-01-02T01:46:19.087Z,98.00
2023-01-02T01:48:49.466Z,96.17
2023-01-02T01:51:20.007Z,89.87
2023-01-02T01:53:53.597Z,85.47
2023-01-02T01:56:21.770Z,86.60
2023-01-02T01:58:50.356Z,90.10
2023-01-02T02:01:18.912Z,81.87
2023-01-02T02:03:49.297Z,81.90
2023-01-02T02:06:19.119Z,79.93
2023-01-02T02:08:54.681Z,81.03
2023-01-02T02:11:22.962Z,77.73
2023-01-02T02:13:51.878Z,76.60
2023-01-02T02:16:36.198Z,77.93
2023-01-02T02:19:26.515Z,73.70
2023-01-02T02:22:10.681Z,69.40
2023-01-02T02:25:18.792Z,67.03
2023-01-02T02:28:16.242Z,68.20
2023-01-02T02:30:53.135Z,68.37
2023-01-02T02:33:34.786Z,66.30
2023-01-02T02:36:10.722Z,64.40
2023-01-02T02:38:53.543Z,64.33
2023-01-02T02:41:33.325Z,65.47
2023-01-02T02:44:09.705Z,64.27
2023-01-02T02:46:52.005Z,62.53
2023-01-02T02:49:32.306Z,62.73
2023-01-02T02:52:08.681Z,61.43
2023-01-02T02:54:43.577Z,64.20
2023-01-02T02:57:14.121Z,63.47
2023-01-02T02:59:43.208Z,62.80
2023-01-02T03:02:16.407Z,61.37
2023-01-02T03:04:46.990Z,61.77
2023-01-02T03:07:25.580Z,63.87
2023-01-02T03:10:04.511Z,67.63
2023-01-02T03:12:41.371Z,67.37
2023-01-02T03:15:18.852Z,67.17
2023-01-02T03:18:00.134Z,67.37
2023-01-02T03:20:34.862Z,67.10
2023-01-02T03:23:07.710Z,66.30
2023-01-02T03:25:37.924Z,70.33
2023-01-02T03:28:09.036Z,74.73
2023-01-02T03:30:41.045Z,78.00
2023-01-02T03:33:15.799Z,77.50
2023-01-02T03:35:48.057Z,79.07
2023-01-02T03:38:21.576Z,79.70
2023-01-02T03:40:56.852Z,79.43
2023-01-02T03:43:29.284Z,79.87
2023-01-02T03:46:10.109Z,82.77
2023-01-02T03:48:44.989Z,81.87
2023-01-02T03:51:13.746Z,78.20
2023-01-02T03:53:42.079Z,74.20
2023-01-02T03:56:18.557Z,79.47
2023-01-02T03:58:52.522Z,75.40
2023-01-02T04:01:33.956Z,76.50
2023-01-02T04:04:13.054Z,77.77
2023-01-02T04:06:48.013Z,78.93
2023-01-02T04:09:20.868Z,85.00
2023-01-02T04:11:55.881Z,83.13
2023-01-02T04:14:30.255Z,86.27
2023-01-02T04:17:02.321Z,87.40
2023-01-02T04:19:36.530Z,96.83
2023-01-02T04:22:09.342Z,102.00
2023-01-02T04:24:40.198Z,100.53
2023-01-02T04:27:13.845Z,103.40
2023-01-02T04:29:42.526Z,102.07
2023-01-02T04:32:15.758Z,103.07
2023-01-02T04:34:47.834Z,103.27
2023-01-02T04:37:28.306Z,99.90
2023-01-02T04:39:59.849Z,98.93
2023-01-02T04:42:28.165Z,95.37
2023-01-02T04:44:56.265Z,95.77
2023-01-02T04:47:24.363Z,94.77
2023-01-02T04:49:53.839Z,94.00
2023-01-02T04:52:22.035Z,89.17
2023-01-02T04:54:50.203Z,91.23
2023-01-02T04:57:18.318Z,93.00
2023-01-02T04:59:46.388Z,98.07
2023-01-02T05:02:14.551Z,101.67
2023-01-02T05:04:42.686Z,89.47
2023-01-02T05:07:12.851Z,94.97
2023-01-02T05:09:40.966Z,100.87
2023-01-02T05:12:09.080Z,115.57
2023-01-02T05:14:37.232Z,123.27
2023-01-02T05:17:05.364Z,125.90
2023-01-02T05:19:33.385Z,113.37
2023-01-02T05:22:18.864Z,111.10
2023-01-02T05:24:48.270Z,106.97
2023-01-02T05:27:16.476Z,115.60
2023-01-02T05:29:44.555Z,124.23
2023-01-02T05:32:12.693Z,120.87
2023-01-02T05:34:40.715Z,128.53
2023-01-02T05:37:08.797Z,137.23
2023-01-02T05:39:36.874Z,140.47
2023-01-02T05:42:06.740Z,130.20
2023-01-02T05:44:34.831Z,129.07
2023-01-02T05:47:03.024Z,123.10
2023-01-02T05:49:31.129Z,134.63
2023-01-02T05:51:59.253Z,134.67
2023-01-02T05:54:27.382Z,135.60
2023-01-02T05:56:55.477Z,118.73
2023-01-02T05:59:24.941Z,120.97
2023-01-02T06:01:53.161Z,133.07
2023-01-02T06:04:21.324Z,121.80
2023-01-02T06:06:49.700Z,120.93
2023-01-02T06:09:19.041Z,117.47
2023-01-02T06:11:47.176Z,125.10
2023-01-02T06:14:15.234Z,117.17
2023-01-02T06:16:44.838Z,116.50
2023-01-02T06:19:12.970Z,120.77
2023-01-02T06:21:41.026Z,124.93
2023-01-02T06:24:09.434Z,119.13
2023-01-02T06:26:37.566Z,121.20
2023-01-02T06:29:06.065Z,116.90
2023-01-02T06:31:34.229Z,115.37
2023-01-02T06:34:04.979Z,113.77
2023-01-02T06:36:35.130Z,114.23
2023-01-02T06:39:03.527Z,121.47
2023-01-02T06:41:31.643Z,112.03
2023-01-02T06:43:59.765Z,112.30
2023-01-02T06:46:27.885Z,107.90
2023-01-02T06:48:56.247Z,111.63
2023-01-02T06:51:25.824Z,121.60
2023-01-02T06:53:53.992Z,116.73
2023-01-02T06:56:22.776Z,114.97
2023-01-02T06:58:50.872Z,115.80
2023-01-02T07:01:21.049Z,107.60
2023-01-02T07:03:49.569Z,106.70
2023-01-02T07:06:20.700Z,107.70
2023-01-02T07:08:50.666Z,101.10
2023-01-02T07:11:20.687Z,102.10
2023-01-02T07:13:49.987Z,95.97
2023-01-02T07:16:20.360Z,95.70
2023-01-02T07:18:48.776Z,93.67
2023-01-02T07:21:18.140Z,92.30
2023-01-02T07:23:46.439Z,88.43
2023-01-02T07:26:15.954Z,83.70
2023-01-02T07:28:44.168Z,81.63
2023-01-02T07:31:14.853Z,82.87
2023-01-02T07:33:44.403Z,78.90
2023-01-02T07:36:14.061Z,74.63
2023-01-02T07:38:42.259Z,69.20
2023-01-02T07:41:16.759Z,66.33
2023-01-02T07:43:46.845Z,66.50
2023-01-02T07:46:16.829Z,68.00
2023-01-02T07:48:45.708Z,67.07
2023-01-02T07:51:16.394Z,65.93
2023-01-02T07:53:46.550Z,66.33
2023-01-02T07:56:16.085Z,66.27
2023-01-02T07:58:44.202Z,65.63
2023-01-02T08:01:13.994Z,65.17
2023-01-02T08:03:42.744Z,65.23
2023-01-02T08:06:13.189Z,69.97
2023-01-02T08:08:41.583Z,71.97
2023-01-02T08:11:11.661Z,68.83
2023-01-02T08:13:41.525Z,67.90
2023-01-02T08:16:12.265Z,63.57
2023-01-02T08:18:40.521Z,61.73
2023-01-02T08:21:09.942Z,62.73
2023-01-02T08:23:38.462Z,61.97
2023-01-02T08:26:08.328Z,65.70
2023-01-02T08:28:37.538Z,61.23
2023-01-02T08:31:11.537Z,62.33
2023-01-02T08:33:39.747Z,61.53
2023-01-02T08:36:08.772Z,61.63
2023-01-02T08:38:36.919Z,61.20
2023-01-02T08:41:05.378Z,60.00
2023-01-02T08:43:35.656Z,57.70
2023-01-02T08:46:05.817Z,60.13
2023-01-02T08:48:35.490Z,62.30
2023-01-02T08:51:04.508Z,60.33
2023-01-02T08:53:32.655Z,64.93
2023-01-02T08:56:22.501Z,58.60
2023-01-02T08:58:52.842Z,59.87
2023-01-02T09:01:22.138Z,58.77
2023-01-02T09:03:52.231Z,61.10
2023-01-02T09:06:22.388Z,58.97
2023-01-02T09:08:52.408Z,57.90
2023-01-02T09:11:23.420Z,55.83
2023-01-02T09:13:52.017Z,51.87
2023-01-02T09:16:22.319Z,56.47
2023-01-02T09:18:52.329Z,69.80
2023-01-02T09:21:20.487Z,54.40
2023-01-02T09:23:48.566Z,52.97
2023-01-02T09:26:16.951Z,49.23
2023-01-02T09:28:45.705Z,49.50
2023-01-02T09:31:15.711Z,50.40
2023-01-02T09:33:45.712Z,50.83
2023-01-02T09:36:17.062Z,57.70
2023-01-02T09:38:45.323Z,55.20
2023-01-02T09:41:28.081Z,53.70
2023-01-02T09:44:01.225Z,52.83
2023-01-02T09:46:35.290Z,52.07
2023-01-02T09:49:04.879Z,51.00
2023-01-02T09:51:36.290Z,51.07
2023-01-02T09:54:05.896Z,49.77
2023-01-02T09:56:39.794Z,48.80
2023-01-02T09:59:15.937Z,53.03
2023-01-02T10:01:57.127Z,54.80
2023-01-02T10:04:38.742Z,49.73
2023-01-02T10:07:12.523Z,58.10
2023-01-02T10:09:50.804Z,55.33
2023-01-02T10:12:26.709Z,62.20
2023-01-02T10:14:58.131Z,80.50
2023-01-02T10:17:29.028Z,70.07
2023-01-02T10:20:00.826Z,71.03
2023-01-02T10:22:38.116Z,70.97
2023-01-02T10:25:12.488Z,65.73
2023-01-02T10:27:46.288Z,63.13
2023-01-02T10:30:20.976Z,58.37
2023-01-02T10:32:56.601Z,48.73
2023-01-02T10:35:35.125Z,50.93
2023-01-02T10:38:05.056Z,52.67
2023-01-02T10:40:34.495Z,49.07
2023-01-02T10:43:02.931Z,46.87
2023-01-02T10:45:31.634Z,46.13
2023-01-02T10:47:59.814Z,43.07
2023-01-02T10:50:32.234Z,42.67
2023-01-02T10:53:10.084Z,41.83
2023-01-02T10:55:41.637Z,42.97
2023-01-02T10:58:19.146Z,41.00
2023-01-02T11:00:49.614Z,40.40
2023-01-02T11:03:22.451Z,39.80
2023-01-02T11:05:52.423Z,39.57
2023-01-02T11:08:25.091Z,37.30
2023-01-02T11:10:53.290Z,38.57
2023-01-02T11:13:23.094Z,38.63
2023-01-02T11:15:53.867Z,41.00
2023-01-02T11:18:25.601Z,41.67
2023-01-02T11:20:57.165Z,39.07
2023-01-02T11:23:27.665Z,38.87
2023-01-02T11:25:56.157Z,36.63
2023-01-02T11:28:28.224Z,39.97
2023-01-02T11:31:02.567Z,37.63
2023-01-02T11:33:32.368Z,42.50
2023-01-02T11:36:08.488Z,37.70
2023-01-02T11:38:46.973Z,40.17
2023-01-02T11:41:49.361Z,44.07
2023-01-02T11:44:23.004Z,41.37
2023-01-02T11:46:52.333Z,43.37
2023-01-02T11:49:24.753Z,39.50
2023-01-02T11:51:57.613Z,37.90
2023-01-02T11:54:34.937Z,38.10
2023-01-02T11:57:03.271Z,36.20
2023-01-02T11:59:37.550Z,36.73
2023-01-02T12:02:16.584Z,36.47
2023-01-02T12:04:44.720Z,33.90
2023-01-02T12:07:30.300Z,32.73
2023-01-02T12:10:10.081Z,32.67
2023-01-02T12:12:53.313Z,31.92
2023-01-02T12:15:44.948Z,31.48
2023-01-02T12:18:28.157Z,30.67
2023-01-02T12:21:04.137Z,28.33
2023-01-02T12:23:44.811Z,29.65
2023-01-02T12:26:19.343Z,29.95
2023-01-02T12:29:05.594Z,28.80
2023-01-02T12:31:51.587Z,26.75
2023-01-02T12:34:35.061Z,26.13
2023-01-02T12:37:24.686Z,26.80
2023-01-02T12:40:32.617Z,27.52
2023-01-02T12:43:15.683Z,35.60
2023-01-02T12:45:53.287Z,33.95
2023-01-02T12:48:40.178Z,33.88
2023-01-02T12:51:18.293Z,32.10
2023-01-02T12:54:20.178Z,27.58
2023-01-02T12:56:55.003Z,34.20
2023-01-02T13:00:00.443Z,30.83
2023-01-02T13:02:43.456Z,28.25
2023-01-02T13:05:15.938Z,26.92
2023-01-02T13:07:49.186Z,31.60
2023-01-02T13:10:21.492Z,26.10
2023-01-02T13:12:50.803Z,27.77
2023-01-02T13:15:23.860Z,27.45
2023-01-02T13:18:02.240Z,27.10
2023-01-02T13:20:45.083Z,29.38
2023-01-02T13:23:32.761Z,24.60
2023-01-02T13:26:03.113Z,28.50
2023-01-02T15:25:15.904Z,34.33
2023-01-02T15:27:44.053Z,35.17
2023-01-02T15:30:23.948Z,33.93
2023-01-02T15:32:52.059Z,36.77
2023-01-02T15:35:23.382Z,35.77
2023-01-02T15:37:52.433Z,35.67
2023-01-02T15:40:28.131Z,35.03
2023-01-02T15:43:17.929Z,37.47
2023-01-02T15:45:49.442Z,38.27
2023-01-02T15:48:17.752Z,36.00
2023-01-02T15:50:55.374Z,38.87
2023-01-02T15:53:28.277Z,38.70
2023-01-02T15:55:58.454Z,38.70
2023-01-02T15:58:30.131Z,39.77
2023-01-02T16:01:19.423Z,40.70
2023-01-02T16:04:03.070Z,41.00
2023-01-02T16:06:34.843Z,42.83
2023-01-02T16:09:05.711Z,43.03
2023-01-02T16:11:44.799Z,43.47
2023-01-02T16:14:22.208Z,46.20
2023-01-02T16:16:55.225Z,44.90
2023-01-02T16:19:28.336Z,50.93
2023-01-02T16:22:05.286Z,45.20
2023-01-02T16:24:35.374Z,47.13
2023-01-02T16:27:05.754Z,48.43
2023-01-02T16:29:33.988Z,45.93
2023-01-02T16:32:02.966Z,45.97
2023-01-02T16:34:38.071Z,45.60
2023-01-02T16:37:27.256Z,45.00
2023-01-02T16:39:55.833Z,46.37
2023-01-02T16:42:41.574Z,46.00
2023-01-02T16:45:11.914Z,47.00
2023-01-02T16:47:43.554Z,46.37
2023-01-02T16:50:18.371Z,47.43
2023-01-02T16:52:46.599Z,47.80
2023-01-02T16:55:17.318Z,47.93
2023-01-02T16:57:46.864Z,46.80
2023-01-02T17:00:19.065Z,46.80
2023-01-02T17:02:48.315Z,44.87
2023-01-02T17:05:20.113Z,44.73
2023-01-02T17:07:48.290Z,45.13
2023-01-02T17:10:16.783Z,44.97
2023-01-02T17:12:46.728Z,45.20
2023-01-02T17:15:16.161Z,44.70
2023-01-02T17:17:44.487Z,43.20
2023-01-02T17:20:13.950Z,44.93
2023-01-02T17:22:42.385Z,43.83
2023-01-02T17:25:14.536Z,44.67
2023-01-02T17:27:43.537Z,44.73
2023-01-02T17:30:15.032Z,46.20
2023-01-02T17:32:44.164Z,45.40
2023-01-02T17:35:13.112Z,46.50
2023-01-02T17:37:41.455Z,47.17
2023-01-02T17:40:12.134Z,46.43
2023-01-02T17:42:40.688Z,48.30
2023-01-02T17:45:10.407Z,48.53
2023-01-02T17:47:59.909Z,47.63
2023-01-02T17:50:28.116Z,48.80
2023-01-02T17:52:56.156Z,49.23
2023-01-02T17:55:24.265Z,50.53
2023-01-02T17:57:52.304Z,49.63
2023-01-02T18:00:23.473Z,51.97
2023-01-02T18:02:54.420Z,53.17
2023-01-02T18:05:22.972Z,55.43
2023-01-02T18:07:51.273Z,57.50
2023-01-02T18:10:20.820Z,57.50
2023-01-02T18:12:50.173Z,57.73
2023-01-02T18:15:21.120Z,59.47
2023-01-02T18:17:50.172Z,59.07
2023-01-02T18:20:21.888Z,61.03
2023-01-02T18:22:51.231Z,60.10
2023-01-02T18:25:21.720Z,60.70
2023-01-02T18:27:50.087Z,63.93
2023-01-02T18:30:20.722Z,60.70
2023-01-02T18:32:50.201Z,61.07
2023-01-02T18:38:25.085Z,64.10
2023-01-02T18:40:53.527Z,63.67
2023-01-02T18:43:28.543Z,62.50
2023-01-02T18:46:01.567Z,63.97
2023-01-02T18:48:29.791Z,67.47
2023-01-02T18:51:01.080Z,67.57
2023-01-02T18:53:35.257Z,67.30
2023-01-02T18:56:12.952Z,69.03
2023-01-02T18:58:43.569Z,71.57
2023-01-02T19:01:26.091Z,69.03
2023-01-02T19:03:58.298Z,69.93
2023-01-02T19:06:29.197Z,71.53
2023-01-02T19:09:06.912Z,73.17
2023-01-02T19:12:01.907Z,73.50
2023-01-02T19:14:39.096Z,74.57
2023-01-02T19:17:19.811Z,76.77
2023-01-02T19:19:48.553Z,76.27
2023-01-02T19:22:20.933Z,77.73
2023-01-02T19:24:49.659Z,82.27
2023-01-02T19:27:24.612Z,81.37
2023-01-02T19:29:53.470Z,78.77
2023-01-02T19:32:28.304Z,78.90
2023-01-02T19:34:58.295Z,79.80
2023-01-02T19:37:39.040Z,77.73
2023-01-02T19:40:18.950Z,82.67
2023-01-02T19:42:48.554Z,82.17
2023-01-02T19:45:18.927Z,80.30
2023-01-02T19:47:48.071Z,79.57
2023-01-02T19:50:19.665Z,80.67
2023-01-02T19:52:49.450Z,78.07
2023-01-02T19:55:18.779Z,76.87
2023-01-02T19:57:47.761Z,79.77
2023-01-02T20:00:20.110Z,78.43
2023-01-02T20:02:51.655Z,77.33
2023-01-02T20:05:22.336Z,75.17
2023-01-02T20:07:54.357Z,78.00
2023-01-02T20:10:23.087Z,77.63
2023-01-02T20:12:51.297Z,78.13
2023-01-02T20:15:23.379Z,77.17
2023-01-02T20:17:52.412Z,79.40
2023-01-02T20:20:21.937Z,82.40
2023-01-02T20:22:51.913Z,82.57
2023-01-02T20:25:24.449Z,80.20
2023-01-02T20:27:55.031Z,85.13
2023-01-02T20:30:26.274Z,82.37
2023-01-02T20:32:55.917Z,84.60
2023-01-02T20:35:24.494Z,83.53
2023-01-02T20:37:52.700Z,81.47
2023-01-02T20:40:22.314Z,80.30
2023-01-02T20:42:50.472Z,85.93
2023-01-02T20:45:18.884Z,84.97
2023-01-02T20:47:47.118Z,85.07
2023-01-02T20:50:15.338Z,85.23
2023-01-02T20:52:43.471Z,86.87
2023-01-02T20:55:12.231Z,83.83
2023-01-02T20:57:41.691Z,84.17
2023-01-02T21:00:10.915Z,84.33
2023-01-02T21:02:39.303Z,86.67
2023-01-02T21:05:08.084Z,82.63
2023-01-02T21:07:36.196Z,84.03
2023-01-02T21:10:04.438Z,83.13
2023-01-02T21:12:49.897Z,82.67
2023-01-02T21:15:37.389Z,84.53
2023-01-02T21:18:05.959Z,83.83
2023-01-02T21:20:34.049Z,85.77
2023-01-02T21:23:02.160Z,83.03
2023-01-02T21:25:30.293Z,83.87
2023-01-02T21:27:58.604Z,79.67
2023-01-02T21:30:28.140Z,80.27
2023-01-02T21:32:56.210Z,81.20
2023-01-02T21:35:24.368Z,80.00
2023-01-02T21:37:52.565Z,78.90
2023-01-02T21:40:20.927Z,78.50
2023-01-02T21:42:49.156Z,78.23
2023-01-02T21:45:17.445Z,77.57
2023-01-02T21:47:46.938Z,78.53
2023-01-02T21:50:15.545Z,75.37
2023-01-02T21:52:43.624Z,72.93
2023-01-02T21:55:17.501Z,72.70
2023-01-02T21:58:12.386Z,72.37
2023-01-02T22:00:34.127Z,74.07
2023-01-02T22:03:03.919Z,72.10
2023-01-02T22:05:32.205Z,71.27
2023-01-02T22:08:00.459Z,70.90
2023-01-02T22:10:28.816Z,68.77
2023-01-02T22:12:56.979Z,70.67
2023-01-02T22:15:25.377Z,70.40
2023-01-02T22:17:53.446Z,70.63
2023-01-02T22:20:23.493Z,68.97
2023-01-02T22:22:51.780Z,71.03
2023-01-02T22:25:19.942Z,72.30
2023-01-02T22:27:48.140Z,70.43
2023-01-02T22:30:24.312Z,71.50
2023-01-02T22:32:56.001Z,75.10
2023-01-02T22:35:25.561Z,73.87
2023-01-02T22:37:53.841Z,75.33
2023-01-02T22:40:22.131Z,74.63
2023-01-02T22:43:05.728Z,70.83
2023-01-02T22:45:38.057Z,71.40
2023-01-02T22:48:09.780Z,75.90
2023-01-02T22:50:45.322Z,73.47
2023-01-02T22:53:20.000Z,75.50
2023-01-02T22:55:48.454Z,75.23
2023-01-02T22:58:16.775Z,74.43
2023-01-02T23:00:46.320Z,74.43
2023-01-02T23:03:15.848Z,74.47
2023-01-02T23:05:45.321Z,78.43
2023-01-02T23:08:14.591Z,76.50
2023-01-02T23:10:42.884Z,74.83
2023-01-02T23:13:11.136Z,74.80
2023-01-02T23:16:00.839Z,75.47
2023-01-02T23:18:49.122Z,74.70
2023-01-02T23:21:25.101Z,77.03
2023-01-02T23:23:53.922Z,74.03
2023-01-02T23:26:23.444Z,78.97
2023-01-02T23:29:08.382Z,80.17
2023-01-02T23:31:38.629Z,79.30
2023-01-02T23:34:07.228Z,80.53
2023-01-02T23:36:37.353Z,75.80
2023-01-02T23:39:06.968Z,78.93
2023-01-02T23:41:35.715Z,77.13
2023-01-02T23:44:03.942Z,75.47
2023-01-02T23:46:32.169Z,74.27
2023-01-02T23:49:00.410Z,73.57
2023-01-02T23:51:30.564Z,75.67
2023-01-02T23:54:00.951Z,76.77
2023-01-02T23:56:31.625Z,77.67
2023-01-02T23:59:01.993Z,80.37
